createdAt,value
2019-04-01T02:02:35.031Z,5.97
2019-04-01T02:05:02.862Z,5.90
2019-04-01T02:07:31.039Z,5.96
2019-04-01T02:09:58.935Z,5.82
2019-04-01T02:12:26.555Z,5.80
2019-04-01T02:14:54.001Z,5.82
2019-04-01T02:17:21.905Z,5.88
2019-04-01T02:19:49.542Z,5.89
2019-04-01T02:22:17.518Z,5.89
2019-04-01T02:24:45.408Z,5.85
2019-04-01T02:27:13.249Z,5.77
2019-04-01T02:29:40.804Z,5.80
2019-04-01T02:32:08.721Z,5.81
2019-04-01T02:34:36.650Z,5.70
2019-04-01T02:37:04.131Z,5.73
2019-04-01T02:39:31.652Z,5.76
2019-04-01T02:41:59.220Z,5.82
2019-04-01T02:44:26.803Z,5.82
2019-04-01T02:46:54.848Z,5.77
2019-04-01T02:49:23.066Z,5.73
2019-04-01T02:51:50.881Z,5.58
2019-04-01T02:54:18.579Z,5.63
2019-04-01T02:56:46.262Z,5.67
2019-04-01T02:59:14.481Z,5.69
2019-04-01T03:01:42.029Z,5.56
2019-04-01T03:04:09.808Z,5.58
2019-04-01T03:06:37.301Z,5.55
2019-04-01T03:09:06.337Z,5.44
2019-04-01T03:11:33.841Z,5.44
2019-04-01T03:14:01.479Z,5.45
2019-04-01T03:16:29.035Z,5.44
2019-04-01T03:18:56.725Z,5.43
2019-04-01T03:21:24.140Z,5.34
2019-04-01T03:23:51.564Z,5.25
2019-04-01T03:26:19.166Z,5.31
2019-04-01T03:28:47.757Z,5.31
2019-04-01T03:31:15.415Z,5.31
2019-04-01T03:33:43.505Z,5.25
2019-04-01T03:36:11.067Z,5.17
2019-04-01T03:38:38.698Z,5.12
2019-04-01T03:41:06.301Z,4.96
2019-04-01T03:43:34.016Z,5.09
2019-04-01T03:46:01.845Z,5.07
2019-04-01T03:48:29.481Z,4.99
2019-04-01T18:44:34.933Z,10.84
2019-04-01T18:47:04.015Z,10.80
2019-04-01T18:49:34.887Z,10.71
2019-04-01T18:52:02.547Z,10.60
2019-04-01T18:54:30.146Z,10.60
2019-04-01T18:56:58.354Z,10.56
2019-04-01T18:59:26.393Z,10.32
2019-04-01T19:01:54.151Z,10.11
2019-04-01T19:04:22.832Z,9.82
2019-04-01T19:06:50.366Z,9.74
2019-04-01T19:09:18.390Z,10.04
2019-04-01T19:11:46.093Z,10.02
2019-04-01T19:14:13.718Z,10.15
2019-04-01T19:16:41.690Z,10.23
2019-04-01T19:19:11.207Z,10.22
2019-04-01T19:21:39.621Z,10.07
2019-04-01T19:24:08.242Z,9.91
2019-04-01T19:26:36.439Z,9.92
2019-04-01T19:29:06.632Z,9.72
2019-04-01T19:31:35.311Z,9.56
2019-04-01T19:34:04.539Z,9.66
2019-04-01T19:36:32.275Z,9.68
2019-04-01T19:39:00.259Z,9.66
2019-04-01T19:41:28.220Z,9.81
2019-04-01T19:43:55.790Z,9.89
2019-04-01T19:46:25.345Z,10.01
2019-04-01T19:48:53.325Z,9.99
2019-04-01T19:51:21.883Z,9.96
2019-04-01T19:53:49.791Z,9.85
2019-04-01T19:56:17.386Z,9.94
2019-04-01T19:58:45.038Z,9.95
